createdAt,value
2022-10-22T00:00:14.937Z,22.50
2022-10-22T00:00:22.540Z,22.50
2022-10-22T00:00:29.944Z,22.50
2022-10-22T00:00:37.334Z,22.50
2022-10-22T00:00:44.761Z,22.50
2022-10-22T00:00:53.040Z,22.50
2022-10-22T00:01:13.028Z,22.50
2022-10-22T00:01:22.259Z,22.50
2022-10-22T00:01:29.637Z,22.50
2022-10-22T00:01:38.276Z,22.40
2022-10-22T00:01:45.907Z,22.50
2022-10-22T00:01:54.490Z,22.50
2022-10-22T00:02:02.520Z,22.50
2022-10-22T00:02:22.480Z,22.50
2022-10-22T00:02:30.109Z,22.50
2022-10-22T00:02:37.923Z,22.50
2022-10-22T00:02:45.631Z,22.50
2022-10-22T00:02:53.392Z,22.50
2022-10-22T00:03:00.959Z,22.50
2022-10-22T00:03:20.708Z,22.50
2022-10-22T00:03:28.382Z,22.50
2022-10-22T00:03:35.723Z,22.40
2022-10-22T00:03:43.180Z,22.50
2022-10-22T00:04:03.178Z,22.50
2022-10-22T00:04:10.568Z,22.50
2022-10-22T00:04:17.964Z,22.50
2022-10-22T00:04:25.473Z,22.50
2022-10-22T00:04:35.405Z,22.50
2022-10-22T00:04:57.287Z,22.50
2022-10-22T00:05:05.696Z,22.50
2022-10-22T00:05:13.254Z,22.40
2022-10-22T00:05:32.968Z,22.50
2022-10-22T00:05:40.390Z,22.50
2022-10-22T00:05:48.411Z,22.50
2022-10-22T00:05:55.890Z,22.50
2022-10-22T00:06:03.345Z,22.40
2022-10-22T00:06:23.114Z,22.40
2022-10-22T00:06:30.532Z,22.50
2022-10-22T00:06:37.926Z,22.50
2022-10-22T00:06:45.440Z,22.50
2022-10-22T00:06:52.986Z,22.40
2022-10-22T00:07:12.934Z,22.40
2022-10-22T00:07:22.429Z,22.50
2022-10-22T00:07:30.023Z,22.40
2022-10-22T00:07:37.703Z,22.50
2022-10-22T00:07:45.395Z,22.50
2022-10-22T00:07:52.831Z,22.50
2022-10-22T00:08:12.501Z,22.50
2022-10-22T00:08:19.882Z,22.50
2022-10-22T00:08:27.527Z,22.50
2022-10-22T00:08:34.997Z,22.50
2022-10-22T00:08:42.528Z,22.50
2022-10-22T00:09:02.374Z,22.50
2022-10-22T00:09:09.892Z,22.50
2022-10-22T00:09:17.422Z,22.50
2022-10-22T00:09:24.928Z,22.50
2022-10-22T00:09:32.497Z,22.50
2022-10-22T00:09:52.318Z,22.50
2022-10-22T00:09:59.692Z,22.50
2022-10-22T00:10:07.835Z,22.50
2022-10-22T00:10:15.282Z,22.50
2022-10-22T00:10:22.754Z,22.50
2022-10-22T00:10:42.813Z,22.50
2022-10-22T00:10:50.271Z,22.40
2022-10-22T00:10:58.145Z,22.50
2022-10-22T00:11:10.319Z,22.50
2022-10-22T00:11:19.785Z,22.40
2022-10-22T00:11:27.395Z,22.40
2022-10-22T00:11:35.016Z,22.40
2022-10-22T00:11:43.470Z,22.50
2022-10-22T00:11:50.942Z,22.40
2022-10-22T00:12:11.594Z,22.40
2022-10-22T00:12:19.031Z,22.40
2022-10-22T00:12:27.318Z,22.50
2022-10-22T00:12:34.965Z,22.50
2022-10-22T00:12:42.431Z,22.40
2022-10-22T00:13:02.064Z,22.40
2022-10-22T00:13:10.250Z,22.40
2022-10-22T00:13:17.782Z,22.50
2022-10-22T00:13:25.730Z,22.40
2022-10-22T00:13:33.191Z,22.40
2022-10-22T00:13:41.503Z,22.40
2022-10-22T00:14:01.620Z,22.50
2022-10-22T00:14:09.259Z,22.50
2022-10-22T00:14:16.760Z,22.50
2022-10-22T00:14:24.146Z,22.50
2022-10-22T00:14:31.568Z,22.40
2022-10-22T00:14:51.553Z,22.40
2022-10-22T00:14:59.005Z,22.40
2022-10-22T00:15:07.441Z,22.40
2022-10-22T00:15:14.839Z,22.50
2022-10-22T00:15:22.435Z,22.40
2022-10-22T00:15:42.218Z,22.40
2022-10-22T00:15:49.676Z,22.40
2022-10-22T00:15:57.133Z,22.40
2022-10-22T00:16:05.033Z,22.50
2022-10-22T00:16:13.283Z,22.50
2022-10-22T00:16:33.026Z,22.50
2022-10-22T00:16:40.417Z,22.40
2022-10-22T00:16:47.836Z,22.40
2022-10-22T00:16:56.578Z,22.40
2022-10-22T00:17:06.908Z,22.40
2022-10-22T00:17:19.005Z,22.40
2022-10-22T00:17:26.485Z,22.40
2022-10-22T00:17:33.869Z,22.50
2022-10-22T00:17:41.763Z,22.40
2022-10-22T00:18:02.350Z,22.40
2022-10-22T00:18:09.738Z,22.40
2022-10-22T00:18:17.449Z,22.40
2022-10-22T00:18:24.823Z,22.40
2022-10-22T00:18:32.255Z,22.40
2022-10-22T00:18:41.114Z,22.40
2022-10-22T00:19:01.023Z,22.40
2022-10-22T00:19:09.504Z,22.40
2022-10-22T00:19:16.926Z,22.40
2022-10-22T00:19:24.426Z,22.40
2022-10-22T00:19:31.930Z,22.40
2022-10-22T00:19:52.482Z,22.40
2022-10-22T00:20:02.704Z,22.40
2022-10-22T00:20:10.500Z,22.40
2022-10-22T00:20:17.885Z,22.40
2022-10-22T00:20:25.280Z,22.40
2022-10-22T00:20:32.800Z,22.40
2022-10-22T00:20:52.747Z,22.40
2022-10-22T00:21:00.242Z,22.40
2022-10-22T00:21:08.239Z,22.40
2022-10-22T00:21:15.913Z,22.40
2022-10-22T00:21:23.469Z,22.40
2022-10-22T00:21:31.070Z,22.50
2022-10-22T00:21:50.943Z,22.40
2022-10-22T00:21:58.581Z,22.40
2022-10-22T00:22:06.181Z,22.40
2022-10-22T00:22:13.643Z,22.40
2022-10-22T00:22:21.279Z,22.40
2022-10-22T00:22:41.028Z,22.40
2022-10-22T00:22:49.018Z,22.40
2022-10-22T00:22:56.539Z,22.40
2022-10-22T00:23:04.030Z,22.40
2022-10-22T00:23:11.488Z,22.40
2022-10-22T00:23:31.183Z,22.40
2022-10-22T00:23:45.704Z,22.40
2022-10-22T00:23:53.147Z,22.40
2022-10-22T00:24:00.735Z,22.40
2022-10-22T00:24:08.276Z,22.40
2022-10-22T00:24:15.909Z,22.40
2022-10-22T00:24:23.323Z,22.40
2022-10-22T00:24:43.224Z,22.40
2022-10-22T00:24:50.602Z,22.40
2022-10-22T00:24:57.995Z,22.40
2022-10-22T00:25:05.645Z,22.40
2022-10-22T00:25:13.036Z,22.40
2022-10-22T00:25:35.899Z,22.40
2022-10-22T00:25:43.291Z,22.40
2022-10-22T00:25:50.655Z,22.40
2022-10-22T00:25:58.267Z,22.40
2022-10-22T00:26:05.812Z,22.40
2022-10-22T00:26:13.246Z,22.40
2022-10-22T00:26:32.974Z,22.40
2022-10-22T00:26:40.653Z,22.40
2022-10-22T00:26:48.698Z,22.40
2022-10-22T00:26:58.706Z,22.40
2022-10-22T00:27:08.480Z,22.40
2022-10-22T00:27:16.019Z,22.40
2022-10-22T00:27:23.427Z,22.40
2022-10-22T00:27:30.890Z,22.40
2022-10-22T00:27:50.537Z,22.40
2022-10-22T00:27:57.888Z,22.40
2022-10-22T00:28:05.534Z,22.40
2022-10-22T00:28:12.920Z,22.40
2022-10-22T00:28:32.895Z,22.40
2022-10-22T00:28:40.632Z,22.40
2022-10-22T00:28:47.979Z,22.40
2022-10-22T00:28:55.390Z,22.40
2022-10-22T00:29:02.791Z,22.40
2022-10-22T00:29:22.641Z,22.40
2022-10-22T00:29:30.455Z,22.40
2022-10-22T00:29:38.065Z,22.40
2022-10-22T00:29:45.582Z,22.40
2022-10-22T00:29:53.048Z,22.40
2022-10-22T00:30:13.070Z,22.40
2022-10-22T00:30:20.616Z,22.40
2022-10-22T00:30:28.249Z,22.40
2022-10-22T00:30:35.629Z,22.40
2022-10-22T00:30:43.023Z,22.40
2022-10-22T00:30:57.212Z,22.40
2022-10-22T00:31:05.259Z,22.40
2022-10-22T00:31:12.973Z,22.40
2022-10-22T00:31:32.794Z,22.40
2022-10-22T00:31:40.250Z,22.40
2022-10-22T00:31:50.160Z,22.40
2022-10-22T00:31:57.631Z,22.40
2022-10-22T00:32:06.663Z,22.40
2022-10-22T00:32:14.206Z,22.40
2022-10-22T00:32:21.598Z,22.40
2022-10-22T00:32:41.550Z,22.40
2022-10-22T00:32:49.160Z,22.40
2022-10-22T00:32:56.586Z,22.40
2022-10-22T00:33:04.082Z,22.40
2022-10-22T00:33:11.480Z,22.40
2022-10-22T00:33:31.769Z,22.40
2022-10-22T00:33:39.216Z,22.40
2022-10-22T00:33:48.291Z,22.40
2022-10-22T00:33:55.726Z,22.40
2022-10-22T00:34:03.453Z,22.40
2022-10-22T00:34:10.856Z,22.40
2022-10-22T00:34:21.369Z,22.40
2022-10-22T00:34:41.310Z,22.40
2022-10-22T00:34:48.729Z,22.40
2022-10-22T00:34:56.127Z,22.40
2022-10-22T00:35:04.508Z,22.40
2022-10-22T00:35:11.945Z,22.40
2022-10-22T00:35:21.870Z,22.40
2022-10-22T00:35:41.685Z,22.40
2022-10-22T00:35:49.094Z,22.40
2022-10-22T00:35:56.869Z,22.30
2022-10-22T00:36:04.701Z,22.30
2022-10-22T00:36:12.779Z,22.30
2022-10-22T00:36:32.532Z,22.40
2022-10-22T00:36:39.975Z,22.40
2022-10-22T00:36:51.466Z,22.30
2022-10-22T00:36:58.934Z,22.40
2022-10-22T00:37:06.387Z,22.40
2022-10-22T00:37:13.839Z,22.30
2022-10-22T00:37:21.225Z,22.30
2022-10-22T00:37:40.984Z,22.40
2022-10-22T00:37:48.518Z,22.40
2022-10-22T00:37:56.051Z,22.30
2022-10-22T00:38:03.648Z,22.30
2022-10-22T00:38:11.056Z,22.40
2022-10-22T00:38:30.920Z,22.30
2022-10-22T00:38:38.354Z,22.30
2022-10-22T00:38:45.698Z,22.30
2022-10-22T00:38:53.358Z,22.30
2022-10-22T00:39:16.379Z,22.30
2022-10-22T00:39:25.622Z,22.30
2022-10-22T00:39:33.106Z,22.30
2022-10-22T00:39:40.632Z,22.30
2022-10-22T00:39:48.146Z,22.30
2022-10-22T00:39:55.526Z,22.30
2022-10-22T00:40:03.855Z,22.40
2022-10-22T00:40:12.121Z,22.30
2022-10-22T00:40:32.219Z,22.40
2022-10-22T00:40:39.637Z,22.30
2022-10-22T00:40:47.399Z,22.30
2022-10-22T00:40:55.207Z,22.30
2022-10-22T00:41:02.765Z,22.30
2022-10-22T00:41:13.855Z,22.30
2022-10-22T00:41:21.334Z,22.30
2022-10-22T00:41:41.061Z,22.30
2022-10-22T00:41:51.009Z,22.30
2022-10-22T00:41:59.140Z,22.30
2022-10-22T00:42:06.639Z,22.30
2022-10-22T00:42:20.278Z,22.30
2022-10-22T00:42:30.554Z,22.30
2022-10-22T00:42:38.398Z,22.30
2022-10-22T00:42:46.098Z,22.30
2022-10-22T00:42:54.292Z,22.30
2022-10-22T00:43:06.174Z,22.30
2022-10-22T00:43:15.323Z,22.30
2022-10-22T00:43:22.808Z,22.30
2022-10-22T00:44:03.494Z,22.30
2022-10-22T00:44:48.410Z,22.30
2022-10-22T00:45:05.016Z,22.30
2022-10-22T00:45:24.070Z,22.30
2022-10-22T00:45:31.739Z,22.30
2022-10-22T00:45:39.449Z,22.30
2022-10-22T00:45:47.111Z,22.30
2022-10-22T00:45:54.870Z,22.30
2022-10-22T00:46:02.397Z,22.30
2022-10-22T00:46:09.821Z,22.30
2022-10-22T00:46:17.234Z,22.30
2022-10-22T00:46:24.847Z,22.30
2022-10-22T00:46:32.445Z,22.30
2022-10-22T00:46:39.918Z,22.30
2022-10-22T00:46:47.291Z,22.30
2022-10-22T00:46:54.789Z,22.30
2022-10-22T00:47:02.183Z,22.30
2022-10-22T00:47:09.606Z,22.30
2022-10-22T00:47:19.134Z,22.30
2022-10-22T00:47:32.316Z,22.30
2022-10-22T00:47:47.076Z,22.30
2022-10-22T00:48:05.532Z,22.30
2022-10-22T00:48:22.272Z,22.30
2022-10-22T00:48:33.692Z,22.30
2022-10-22T00:48:41.251Z,22.30
2022-10-22T00:48:48.767Z,22.20
2022-10-22T00:48:59.432Z,22.30
2022-10-22T00:49:07.057Z,22.30
2022-10-22T00:49:14.466Z,22.30
2022-10-22T00:49:21.943Z,22.20
2022-10-22T00:49:30.265Z,22.20
2022-10-22T00:49:37.736Z,22.20
2022-10-22T00:49:46.907Z,22.20
2022-10-22T00:49:56.045Z,22.30
2022-10-22T00:50:06.590Z,22.20
2022-10-22T00:50:31.981Z,22.20
2022-10-22T00:50:56.818Z,22.30
2022-10-22T00:51:08.235Z,22.20
2022-10-22T00:51:16.065Z,22.30
2022-10-22T00:51:27.529Z,22.30
2022-10-22T00:51:36.543Z,22.20
2022-10-22T00:51:44.012Z,22.20
2022-10-22T00:51:51.475Z,22.20
2022-10-22T00:51:58.997Z,22.30
2022-10-22T00:52:06.824Z,22.20
2022-10-22T00:52:14.855Z,22.20
2022-10-22T00:52:22.987Z,22.20
2022-10-22T00:52:30.495Z,22.20
2022-10-22T00:52:38.411Z,22.20
2022-10-22T00:52:46.874Z,22.20
2022-10-22T00:52:55.595Z,22.20
2022-10-22T00:53:04.961Z,22.20
2022-10-22T00:53:19.463Z,22.20
2022-10-22T00:53:31.951Z,22.30
2022-10-22T00:53:45.589Z,22.20
2022-10-22T00:54:00.359Z,22.20
2022-10-22T00:54:10.040Z,22.20
2022-10-22T00:54:17.502Z,22.20
2022-10-22T00:54:24.951Z,22.20
2022-10-22T00:54:32.439Z,22.20
2022-10-22T00:54:41.552Z,22.20
2022-10-22T00:54:50.277Z,22.20
2022-10-22T00:54:58.433Z,22.20
2022-10-22T00:55:06.495Z,22.20
2022-10-22T00:55:15.204Z,22.20
2022-10-22T00:55:24.400Z,22.20
2022-10-22T00:55:33.712Z,22.20
2022-10-22T00:55:43.310Z,22.20
2022-10-22T00:55:54.507Z,22.20
2022-10-22T00:56:02.696Z,22.20
2022-10-22T00:56:10.882Z,22.20
2022-10-22T00:56:18.697Z,22.20
2022-10-22T00:56:26.654Z,22.20
2022-10-22T00:56:34.283Z,22.20
2022-10-22T00:56:41.730Z,22.20
2022-10-22T00:56:49.752Z,22.20
2022-10-22T00:56:57.284Z,22.20
2022-10-22T00:57:04.917Z,22.20
2022-10-22T00:57:12.468Z,22.20
2022-10-22T00:57:21.096Z,22.20
2022-10-22T00:57:28.762Z,22.20
2022-10-22T00:57:49.937Z,22.20
2022-10-22T00:57:58.711Z,22.20
2022-10-22T00:58:06.423Z,22.20
2022-10-22T00:58:14.435Z,22.30
2022-10-22T00:58:25.802Z,22.20
2022-10-22T00:58:39.847Z,22.20
2022-10-22T00:58:52.763Z,22.20
2022-10-22T00:59:02.777Z,22.20
2022-10-22T00:59:12.300Z,22.20
2022-10-22T00:59:19.850Z,22.20
2022-10-22T00:59:28.750Z,22.20
2022-10-22T00:59:37.726Z,22.30
2022-10-22T00:59:45.467Z,22.20
2022-10-22T00:59:53.016Z,22.20
2022-10-22T01:00:00.636Z,22.30
2022-10-22T01:00:09.243Z,22.20
2022-10-22T01:00:30.254Z,22.20
2022-10-22T01:00:37.832Z,22.20
2022-10-22T01:00:45.639Z,22.20
2022-10-22T01:00:53.279Z,22.20
2022-10-22T01:01:01.056Z,22.30
2022-10-22T01:01:12.755Z,22.20
2022-10-22T01:01:25.772Z,22.20
2022-10-22T01:01:33.291Z,22.20
2022-10-22T01:01:40.853Z,22.20
2022-10-22T01:01:48.250Z,22.30
2022-10-22T01:02:07.961Z,22.20
2022-10-22T01:02:15.892Z,22.20
2022-10-22T01:02:23.427Z,22.30
2022-10-22T01:02:31.069Z,22.30
2022-10-22T01:02:38.820Z,22.20
2022-10-22T01:03:00.233Z,22.20
2022-10-22T01:03:08.396Z,22.20
2022-10-22T01:03:16.155Z,22.20
2022-10-22T01:03:24.162Z,22.20
2022-10-22T01:03:32.959Z,22.20
2022-10-22T01:03:40.396Z,22.20
2022-10-22T01:03:48.597Z,22.30
2022-10-22T01:04:08.933Z,22.30
2022-10-22T01:04:17.312Z,22.30
2022-10-22T01:04:24.846Z,22.20
2022-10-22T01:04:32.461Z,22.30
2022-10-22T01:04:41.360Z,22.30
2022-10-22T01:04:48.895Z,22.20
2022-10-22T01:05:09.091Z,22.20
2022-10-22T01:05:17.176Z,22.20
2022-10-22T01:05:31.754Z,22.20
2022-10-22T01:05:45.579Z,22.30
2022-10-22T01:06:16.002Z,22.30
2022-10-22T01:06:34.536Z,22.30
2022-10-22T01:06:42.254Z,22.30
2022-10-22T01:06:50.027Z,22.30
2022-10-22T01:06:57.536Z,22.30
2022-10-22T01:07:05.217Z,22.20
2022-10-22T01:07:21.757Z,22.30
2022-10-22T01:07:29.555Z,22.30
2022-10-22T01:07:43.384Z,22.30
2022-10-22T01:07:53.528Z,22.30
2022-10-22T01:08:01.033Z,22.30
2022-10-22T01:08:18.643Z,22.30
2022-10-22T01:08:49.363Z,22.30
2022-10-22T01:09:26.857Z,22.30
2022-10-22T01:09:47.243Z,22.30
2022-10-22T01:10:08.280Z,22.30
2022-10-22T01:10:33.082Z,22.30
2022-10-22T01:11:03.608Z,22.30
2022-10-22T01:11:25.765Z,22.30
2022-10-22T01:11:42.076Z,22.30
2022-10-22T01:12:04.462Z,22.30
2022-10-22T01:12:17.892Z,22.30
2022-10-22T01:12:40.175Z,22.30
2022-10-22T01:13:06.596Z,22.30
2022-10-22T01:13:14.041Z,22.30
2022-10-22T01:13:50.084Z,22.30
2022-10-22T01:14:19.847Z,22.30
2022-10-22T01:15:05.620Z,22.30
2022-10-22T01:16:00.663Z,22.30
2022-10-22T01:16:21.097Z,22.30
2022-10-22T01:16:35.176Z,22.30
2022-10-22T01:17:34.525Z,22.30
2022-10-22T01:17:42.184Z,22.20
2022-10-22T01:17:56.199Z,22.30
2022-10-22T01:18:13.620Z,22.30
2022-10-22T01:18:30.125Z,22.30
2022-10-22T01:18:43.579Z,22.30
2022-10-22T01:18:57.180Z,22.30
2022-10-22T01:19:35.299Z,22.30
2022-10-22T01:20:20.136Z,22.30
2022-10-22T01:20:58.591Z,22.30
2022-10-22T01:21:15.643Z,22.30
2022-10-22T01:21:45.800Z,22.30
2022-10-22T01:21:59.681Z,22.30
2022-10-22T01:22:15.554Z,22.30
2022-10-22T01:22:50.057Z,22.20
2022-10-22T01:23:03.562Z,22.20
2022-10-22T01:23:29.138Z,22.30
2022-10-22T01:24:07.181Z,22.30
2022-10-22T01:24:41.747Z,22.30
2022-10-22T01:24:55.305Z,22.30
2022-10-22T01:25:48.535Z,22.30
2022-10-22T01:26:58.521Z,22.20
2022-10-22T01:27:47.728Z,22.20
2022-10-22T01:28:22.532Z,22.30
2022-10-22T01:28:47.494Z,22.30
2022-10-22T01:29:34.178Z,22.30
2022-10-22T01:29:48.381Z,22.20
2022-10-22T01:30:02.377Z,22.20
2022-10-22T01:30:13.813Z,22.20
2022-10-22T01:30:21.842Z,22.20
2022-10-22T01:30:29.647Z,22.30
2022-10-22T01:30:38.754Z,22.20
2022-10-22T01:30:49.777Z,22.20
2022-10-22T01:31:00.403Z,22.20
2022-10-22T01:31:11.425Z,22.20
2022-10-22T01:31:22.183Z,22.20
2022-10-22T01:31:51.074Z,22.30
2022-10-22T01:32:07.197Z,22.20
2022-10-22T01:32:24.461Z,22.20
2022-10-22T01:32:37.152Z,22.20
2022-10-22T01:32:54.043Z,22.20
2022-10-22T01:33:07.205Z,22.20
2022-10-22T01:33:18.714Z,22.20
2022-10-22T01:33:26.990Z,22.20
2022-10-22T01:33:34.785Z,22.20
2022-10-22T01:33:44.562Z,22.20
2022-10-22T01:33:55.114Z,22.20
2022-10-22T01:34:04.672Z,22.20
2022-10-22T01:34:16.970Z,22.20
2022-10-22T01:34:26.136Z,22.20
2022-10-22T01:34:34.826Z,22.20
2022-10-22T01:34:45.121Z,22.20
2022-10-22T01:35:02.166Z,22.20
2022-10-22T01:35:13.064Z,22.20
2022-10-22T01:35:27.618Z,22.20
2022-10-22T01:35:39.417Z,22.20
2022-10-22T01:35:47.063Z,22.20
2022-10-22T01:35:55.368Z,22.20
2022-10-22T01:36:04.806Z,22.20
2022-10-22T01:36:14.742Z,22.20
2022-10-22T01:36:22.854Z,22.20
2022-10-22T01:36:32.645Z,22.20
2022-10-22T01:36:41.915Z,22.20
2022-10-22T01:36:51.965Z,22.20
2022-10-22T01:37:00.296Z,22.20
2022-10-22T01:37:08.898Z,22.20
2022-10-22T01:37:19.162Z,22.20
2022-10-22T01:37:30.948Z,22.20
2022-10-22T01:37:48.911Z,22.20
2022-10-22T01:38:04.086Z,22.20
2022-10-22T01:38:19.783Z,22.20
2022-10-22T01:38:27.950Z,22.20
2022-10-22T01:38:35.775Z,22.20
2022-10-22T01:38:45.406Z,22.20
2022-10-22T01:38:53.787Z,22.20
2022-10-22T01:39:02.908Z,22.20
2022-10-22T01:39:11.498Z,22.20
2022-10-22T01:39:20.810Z,22.20
2022-10-22T01:39:29.774Z,22.20
2022-10-22T01:39:38.903Z,22.20
2022-10-22T01:39:48.064Z,22.20
2022-10-22T01:39:58.073Z,22.20
2022-10-22T01:40:07.813Z,22.20
2022-10-22T01:40:16.844Z,22.20
2022-10-22T01:40:25.307Z,22.20
2022-10-22T01:40:33.733Z,22.20
2022-10-22T01:40:43.194Z,22.20
2022-10-22T01:40:52.286Z,22.20
2022-10-22T01:41:00.675Z,22.20
2022-10-22T01:41:08.923Z,22.20
2022-10-22T01:41:16.840Z,22.20
2022-10-22T01:41:24.413Z,22.20
2022-10-22T01:41:31.845Z,22.20
2022-10-22T01:41:43.668Z,22.20
2022-10-22T01:41:51.084Z,22.20
2022-10-22T01:41:59.630Z,22.20
2022-10-22T01:42:07.038Z,22.20
2022-10-22T01:42:15.349Z,22.20
2022-10-22T01:42:23.908Z,22.20
2022-10-22T01:42:31.355Z,22.20
2022-10-22T01:42:38.726Z,22.20
2022-10-22T01:43:03.850Z,22.20
2022-10-22T01:43:12.264Z,22.20
2022-10-22T01:43:20.007Z,22.20
2022-10-22T01:43:27.474Z,22.10
2022-10-22T01:43:34.930Z,22.20
2022-10-22T01:43:42.281Z,22.20
2022-10-22T01:43:49.824Z,22.20
2022-10-22T01:43:57.317Z,22.20
2022-10-22T01:44:04.877Z,22.20
2022-10-22T01:44:31.321Z,22.20
2022-10-22T01:44:38.931Z,22.20
2022-10-22T01:44:49.008Z,22.10
2022-10-22T01:44:56.548Z,22.10
2022-10-22T01:45:12.617Z,22.20
2022-10-22T01:45:20.112Z,22.10
2022-10-22T01:45:30.549Z,22.20
2022-10-22T01:45:56.602Z,22.20
2022-10-22T01:46:06.537Z,22.20
2022-10-22T01:46:14.549Z,22.20
2022-10-22T01:46:26.023Z,22.10
2022-10-22T01:46:33.706Z,22.10
2022-10-22T01:46:41.242Z,22.10
2022-10-22T01:46:51.675Z,22.20
2022-10-22T01:47:27.469Z,22.20
2022-10-22T01:47:58.983Z,22.20
2022-10-22T01:48:24.231Z,22.10
2022-10-22T01:48:56.535Z,22.20
2022-10-22T01:49:07.067Z,22.20
2022-10-22T01:49:32.329Z,22.20
2022-10-22T01:49:51.459Z,22.10
2022-10-22T01:50:20.698Z,22.10
2022-10-22T01:50:46.094Z,22.10
2022-10-22T01:51:31.715Z,22.10
2022-10-22T01:51:49.493Z,22.10
2022-10-22T01:52:12.703Z,22.10
2022-10-22T01:52:28.315Z,22.10
2022-10-22T01:52:46.096Z,22.10
2022-10-22T01:53:05.825Z,22.10
2022-10-22T01:53:21.868Z,22.10
2022-10-22T01:53:39.894Z,22.10
2022-10-22T01:53:53.227Z,22.10
2022-10-22T01:54:27.781Z,22.10
2022-10-22T01:54:35.241Z,22.10
2022-10-22T01:54:48.309Z,22.10
2022-10-22T01:55:22.402Z,22.10
2022-10-22T01:55:35.373Z,22.10
2022-10-22T01:56:19.445Z,22.10
2022-10-22T01:56:58.552Z,22.10
2022-10-22T01:57:28.614Z,22.10
2022-10-22T01:58:16.611Z,22.10
2022-10-22T01:58:35.070Z,22.10
2022-10-22T01:59:01.468Z,22.10
2022-10-22T01:59:32.066Z,22.00
2022-10-22T01:59:49.468Z,22.10
2022-10-22T02:00:10.970Z,22.00
2022-10-22T02:00:20.364Z,22.10
2022-10-22T02:00:28.209Z,22.00
2022-10-22T02:00:40.098Z,22.00
2022-10-22T02:00:57.535Z,22.10
2022-10-22T02:01:26.602Z,22.10
2022-10-22T02:02:15.385Z,22.00
2022-10-22T02:02:37.663Z,22.00
2022-10-22T02:02:53.678Z,22.00
2022-10-22T02:03:13.281Z,22.00
2022-10-22T02:03:30.431Z,22.00
2022-10-22T02:04:15.999Z,22.00
2022-10-22T02:04:36.039Z,22.00
2022-10-22T02:04:43.393Z,22.00
2022-10-22T02:04:57.495Z,22.00
2022-10-22T02:05:22.762Z,22.00
2022-10-22T02:05:30.084Z,22.00
2022-10-22T02:05:51.491Z,22.00
2022-10-22T02:06:05.143Z,22.00
2022-10-22T02:06:19.295Z,22.00
2022-10-22T02:06:29.862Z,22.00
2022-10-22T02:06:41.157Z,22.00
2022-10-22T02:06:52.137Z,22.00
2022-10-22T02:07:04.952Z,22.00
2022-10-22T02:07:17.655Z,22.00
2022-10-22T02:07:30.193Z,22.00
2022-10-22T02:07:46.431Z,22.00
2022-10-22T02:08:03.181Z,22.00
2022-10-22T02:08:14.132Z,22.00
2022-10-22T02:08:25.149Z,22.00
2022-10-22T02:08:34.644Z,22.00
2022-10-22T02:08:42.981Z,22.00
2022-10-22T02:08:51.778Z,22.00
2022-10-22T02:09:00.680Z,22.00
2022-10-22T02:09:09.730Z,22.00
2022-10-22T02:09:20.678Z,22.00
2022-10-22T02:09:30.871Z,22.00
2022-10-22T02:09:39.793Z,22.00
2022-10-22T02:09:48.162Z,22.00
2022-10-22T02:09:57.607Z,22.00
2022-10-22T02:10:07.769Z,22.00
2022-10-22T02:10:17.749Z,22.00
2022-10-22T02:10:26.350Z,22.00
2022-10-22T02:10:37.348Z,22.00
2022-10-22T02:10:48.320Z,22.00
2022-10-22T02:10:57.754Z,22.00
2022-10-22T02:11:05.911Z,22.00
2022-10-22T02:11:15.545Z,22.00
2022-10-22T02:11:23.165Z,22.00
2022-10-22T02:11:30.795Z,22.00
2022-10-22T02:11:38.959Z,22.00
2022-10-22T02:11:47.914Z,22.00
2022-10-22T02:11:57.529Z,22.00
2022-10-22T02:12:08.153Z,22.00
2022-10-22T02:12:18.074Z,22.00
2022-10-22T02:12:28.395Z,22.00
2022-10-22T02:12:36.860Z,22.00
2022-10-22T02:12:48.938Z,22.00
2022-10-22T02:12:57.816Z,22.00
2022-10-22T02:13:08.588Z,22.00
2022-10-22T02:13:25.117Z,22.00
2022-10-22T02:13:37.791Z,22.00
2022-10-22T02:13:53.409Z,22.00
2022-10-22T02:14:03.847Z,22.00
2022-10-22T02:14:13.371Z,22.00
2022-10-22T02:14:21.996Z,22.00
2022-10-22T02:14:30.545Z,22.00
2022-10-22T02:14:41.542Z,22.00
2022-10-22T02:14:51.017Z,22.00
2022-10-22T02:15:01.004Z,22.00
2022-10-22T02:15:10.952Z,22.00
2022-10-22T02:15:20.809Z,21.90
2022-10-22T02:15:30.605Z,22.00
2022-10-22T02:15:40.336Z,21.90
2022-10-22T02:15:51.949Z,22.00
2022-10-22T02:16:00.426Z,22.00
2022-10-22T02:16:10.038Z,22.00
2022-10-22T02:16:43.729Z,22.00
2022-10-22T02:16:51.422Z,22.00
2022-10-22T02:16:59.944Z,21.90
2022-10-22T02:17:11.893Z,21.90
2022-10-22T02:17:22.401Z,22.00
2022-10-22T02:17:33.937Z,22.00
2022-10-22T02:17:45.190Z,22.00
2022-10-22T02:17:53.981Z,21.90
2022-10-22T02:18:02.036Z,21.90
2022-10-22T02:18:10.846Z,21.90
2022-10-22T02:18:22.591Z,21.90
2022-10-22T02:18:36.291Z,21.90
2022-10-22T02:18:49.707Z,21.90
2022-10-22T02:19:01.589Z,21.90
2022-10-22T02:19:48.742Z,22.00
2022-10-22T02:20:13.707Z,21.90
2022-10-22T02:20:26.548Z,21.90
2022-10-22T02:20:36.451Z,21.90
2022-10-22T02:20:43.889Z,21.90
2022-10-22T02:20:51.617Z,21.90
2022-10-22T02:21:00.454Z,21.90
2022-10-22T02:21:20.662Z,21.90
2022-10-22T02:21:28.703Z,21.90
2022-10-22T02:21:36.256Z,21.90
2022-10-22T02:21:44.592Z,21.90
2022-10-22T02:21:53.035Z,21.90
2022-10-22T02:22:00.780Z,21.90
2022-10-22T02:22:08.526Z,21.90
2022-10-22T02:22:16.377Z,21.90
2022-10-22T02:22:25.309Z,21.90
2022-10-22T02:22:33.374Z,21.90
2022-10-22T02:22:41.956Z,21.90
2022-10-22T02:22:50.090Z,21.90
2022-10-22T02:22:58.548Z,21.90
2022-10-22T02:23:06.404Z,21.90
2022-10-22T02:23:14.386Z,21.90
2022-10-22T02:23:22.359Z,21.90
2022-10-22T02:23:29.792Z,21.90
2022-10-22T02:23:37.516Z,21.90
2022-10-22T02:23:45.297Z,21.90
2022-10-22T02:23:52.779Z,21.90
2022-10-22T02:24:00.126Z,21.90
2022-10-22T02:24:08.298Z,21.90
2022-10-22T02:24:16.742Z,21.90
2022-10-22T02:24:38.123Z,21.90
2022-10-22T02:24:45.865Z,21.90
2022-10-22T02:24:54.724Z,21.90
2022-10-22T02:25:02.369Z,21.90
2022-10-22T02:25:10.805Z,21.90
2022-10-22T02:25:18.505Z,21.90
2022-10-22T02:25:30.927Z,21.90
2022-10-22T02:25:42.755Z,21.90
2022-10-22T02:25:56.262Z,21.90
2022-10-22T02:26:23.999Z,21.90
2022-10-22T02:26:45.210Z,21.90
2022-10-22T02:27:01.864Z,21.90
2022-10-22T02:27:09.213Z,21.90
2022-10-22T02:27:33.279Z,21.90
2022-10-22T02:28:00.838Z,21.90
2022-10-22T02:28:25.725Z,21.90
2022-10-22T02:28:50.265Z,21.90
2022-10-22T02:29:15.603Z,21.90
2022-10-22T02:29:35.584Z,21.80
2022-10-22T02:30:07.870Z,21.90
2022-10-22T02:30:21.596Z,21.90
2022-10-22T02:30:31.082Z,21.90
2022-10-22T02:30:40.522Z,21.80
2022-10-22T02:30:55.027Z,21.90
2022-10-22T02:31:11.041Z,21.90
2022-10-22T02:31:24.548Z,21.90
2022-10-22T02:31:36.735Z,21.90
2022-10-22T02:31:46.528Z,21.80
2022-10-22T02:31:58.083Z,21.80
2022-10-22T02:32:09.377Z,21.90
2022-10-22T02:32:20.470Z,21.80
2022-10-22T02:32:34.670Z,21.80
2022-10-22T02:32:58.208Z,21.90
2022-10-22T02:33:12.281Z,21.80
2022-10-22T02:33:27.630Z,21.80
2022-10-22T02:33:41.974Z,21.80
2022-10-22T02:33:54.047Z,21.80
2022-10-22T02:34:08.909Z,21.80
2022-10-22T02:34:24.793Z,21.90
2022-10-22T02:34:33.017Z,21.80
2022-10-22T02:34:41.440Z,21.80
2022-10-22T02:34:50.298Z,21.80
2022-10-22T02:34:59.429Z,21.80
2022-10-22T02:35:09.900Z,21.80
2022-10-22T02:35:21.522Z,21.80
2022-10-22T02:35:30.389Z,21.80
2022-10-22T02:35:41.061Z,21.80
2022-10-22T02:35:49.960Z,21.80
2022-10-22T02:35:59.787Z,21.80
2022-10-22T02:36:08.416Z,21.80
2022-10-22T02:36:18.174Z,21.80
2022-10-22T02:36:26.395Z,21.80
2022-10-22T02:36:34.153Z,21.80
2022-10-22T02:36:46.712Z,21.80
2022-10-22T02:36:58.861Z,21.80
2022-10-22T02:37:07.456Z,21.80
2022-10-22T02:37:16.512Z,21.80
2022-10-22T02:37:26.332Z,21.80
2022-10-22T02:37:34.265Z,21.80
2022-10-22T02:37:42.906Z,21.80
2022-10-22T02:37:51.739Z,21.80
2022-10-22T02:38:00.355Z,21.80
2022-10-22T02:38:08.933Z,21.80
2022-10-22T02:38:17.866Z,21.80
2022-10-22T02:38:27.183Z,21.80
2022-10-22T02:38:36.364Z,21.80
2022-10-22T02:38:46.117Z,21.80
2022-10-22T02:38:54.260Z,21.80
2022-10-22T02:39:03.032Z,21.80
2022-10-22T02:39:11.593Z,21.80
2022-10-22T02:39:21.355Z,21.80
2022-10-22T02:39:30.406Z,21.80
2022-10-22T02:39:38.899Z,21.80
2022-10-22T02:39:46.974Z,21.80
2022-10-22T02:39:56.531Z,21.80
2022-10-22T02:40:04.843Z,21.80
2022-10-22T02:40:13.091Z,21.80